map of AHN home
AHN - Airport
Location
City:  Athens, Georgia, United States
Name:Athens/Ben Epps Airport
ICAO:KAHN
IATA:AHN
FAA LID:AHN

Details
Type:Airport (Part 139 Class II)
Use:Public/Civil
Latitude:3356'55"N (33.948639)
Longitude:8319'33"W (-83.325916)
Datum:WGS 1984
Elevation:812 ft (247 m)
Variation:5.96W (WMM2015 magnetic declination)
-0.08 annual change
Runways:2
Longest:6122 × 100 ft (1866 × 30.5 m), paved

Time
Time Zone:UTC-5 (DST-4)
Local Time:

Weather
METAR:KAHN 231751Z 30004KT 10SM CLR 20/09 A3019 RMK AO2 SLP222 T02000089 10211 20067 58015
TAF:KAHN 231720Z 2318/2418 30004KT P6SM SCT250
FM240600 VRB02KT P6SM FEW250
FM241300 07005KT P6SM FEW250

Related Locations
Nearby:
Farthest:MQZ: 11387 mi / 18326 km
Margaret River [Margaret River Airport], WA, AU

Find:

   beyond  
but within

Other Information
Maps:
Delays:
NOTAMs:
Links:
Sources:

  
  • flag of United States
  • flag of Georgia
  

Airport Diagram

Airport diagram for AHN

Airport diagram PDF

Sectional Chart

Flight Planning
at skyvector.com

Satellite Image

Google Maps Satellite view

 

Copyright © 2004-2018 Karl L. Swartz. All rights reserved.
The Great Circle Mapper name and logo are trademarks of the Great Circle Mapper.
All other trademarks mentioned herein belong to their respective owners.
Please see credits for attibutions and further copyright information.

  Follow gcmap on Facebook Follow gcmap on Twitter Follow gcmap on Google+ GCmap on LinkedIn

hCard Microformat

Geo Microformat